createdAt,value
2023-04-21T00:02:22.626Z,8.28
2023-04-21T00:04:50.012Z,8.13
2023-04-21T00:07:16.880Z,8.22
2023-04-21T00:09:44.594Z,8.37
2023-04-21T00:12:11.299Z,8.25
2023-04-21T00:14:39.880Z,8.33
2023-04-21T00:17:06.436Z,8.23
2023-04-21T00:19:33.820Z,8.30
2023-04-21T00:22:01.258Z,8.26
2023-04-21T00:24:27.908Z,8.38
2023-04-21T00:26:54.493Z,8.23
2023-04-21T00:29:21.308Z,8.38
2023-04-21T00:31:48.389Z,8.27
2023-04-21T00:34:15.201Z,8.33
2023-04-21T00:36:41.755Z,8.27
2023-04-21T00:39:08.302Z,8.23
2023-04-21T00:41:37.126Z,7.96
2023-04-21T00:44:08.466Z,8.40
2023-04-21T00:46:36.501Z,8.26
2023-04-21T00:49:07.833Z,8.46
2023-04-21T00:51:36.986Z,8.45
2023-04-21T00:54:09.312Z,8.33
2023-04-21T00:56:37.021Z,8.19
2023-04-21T00:59:04.063Z,8.34
2023-04-21T01:01:37.259Z,8.36
2023-04-21T01:04:05.279Z,7.91
2023-04-21T01:06:34.225Z,8.16
2023-04-21T01:09:01.502Z,8.32
2023-04-21T01:11:28.288Z,8.03
2023-04-21T01:13:55.733Z,7.97
2023-04-21T01:16:24.502Z,8.18
2023-04-21T01:18:53.935Z,8.18
2023-04-21T01:21:22.065Z,8.21
2023-04-21T01:23:48.782Z,8.24
2023-04-21T01:26:19.236Z,8.16
2023-04-21T01:28:47.629Z,8.39
2023-04-21T01:31:16.115Z,8.25
2023-04-21T01:33:45.305Z,7.99
2023-04-21T01:36:12.439Z,8.39
2023-04-21T01:38:42.737Z,8.42
2023-04-21T01:41:10.714Z,8.38
2023-04-21T01:43:37.964Z,8.34
2023-04-21T01:46:05.720Z,8.11
2023-04-21T01:48:33.581Z,8.35
2023-04-21T01:51:00.239Z,8.15
2023-04-21T01:53:26.936Z,8.31
2023-04-21T01:55:53.756Z,8.34
2023-04-21T01:58:21.434Z,8.37
2023-04-21T02:00:48.253Z,8.53
2023-04-21T02:03:15.224Z,8.34
2023-04-21T02:05:42.009Z,8.39
2023-04-21T02:08:08.697Z,8.39
2023-04-21T02:10:35.278Z,8.42
2023-04-21T02:13:01.935Z,8.35
2023-04-21T02:15:29.665Z,8.41
2023-04-21T02:17:56.561Z,8.44
2023-04-21T02:20:25.395Z,8.51
2023-04-21T02:22:52.056Z,8.55
2023-04-21T02:25:20.057Z,8.43
2023-04-21T02:27:46.741Z,8.44
2023-04-21T02:30:13.634Z,8.44
2023-04-21T02:32:42.529Z,8.60
2023-04-21T02:35:10.684Z,8.46
2023-04-21T02:37:37.450Z,8.30
2023-04-21T02:40:05.659Z,8.08
2023-04-21T02:42:35.525Z,8.39
2023-04-21T02:45:02.325Z,8.62
2023-04-21T02:47:29.014Z,8.58
2023-04-21T02:49:58.090Z,8.65
2023-04-21T02:52:24.855Z,8.42
2023-04-21T02:54:56.100Z,8.65
2023-04-21T02:57:24.407Z,8.68
2023-04-21T02:59:51.447Z,8.39
2023-04-21T03:02:19.189Z,8.40
2023-04-21T03:04:45.908Z,8.45
2023-04-21T03:07:16.286Z,8.71
2023-04-21T03:09:42.948Z,8.58
2023-04-21T03:12:09.578Z,8.74
2023-04-21T03:14:36.341Z,8.62
2023-04-21T03:17:02.915Z,8.62
2023-04-21T03:19:31.166Z,8.50
2023-04-21T03:21:57.745Z,8.66
2023-04-21T03:24:24.906Z,8.60
2023-04-21T03:26:51.678Z,8.70
2023-04-21T03:29:18.573Z,8.78
2023-04-21T03:31:45.603Z,8.51
2023-04-21T03:34:13.279Z,8.72
2023-04-21T03:36:40.209Z,8.68
2023-04-21T03:39:19.210Z,8.54
2023-04-21T03:41:47.504Z,8.58
2023-04-21T03:44:14.213Z,8.61
2023-04-21T03:46:44.124Z,8.65
2023-04-21T03:49:10.775Z,8.34
2023-04-21T03:51:37.357Z,8.31
2023-04-21T03:54:04.071Z,8.55
2023-04-21T03:56:30.675Z,8.54
2023-04-21T03:58:58.333Z,8.50
2023-04-21T04:01:24.937Z,8.35
2023-04-21T04:03:51.678Z,8.41
2023-04-21T04:06:18.422Z,8.67
2023-04-21T04:08:45.156Z,8.34
2023-04-21T04:11:11.794Z,8.43
2023-04-21T04:13:38.464Z,8.61
2023-04-21T04:16:05.413Z,8.44
2023-04-21T04:18:32.145Z,8.50
2023-04-21T04:20:58.787Z,8.32
2023-04-21T04:23:26.071Z,8.30
2023-04-21T04:25:52.903Z,8.17
2023-04-21T04:28:19.605Z,8.16
2023-04-21T04:30:46.223Z,8.09
2023-04-21T04:33:12.897Z,8.21
2023-04-21T04:35:39.463Z,8.23
2023-04-21T04:38:07.567Z,8.27
2023-04-21T04:40:34.235Z,7.91
2023-04-21T04:43:02.613Z,8.05
2023-04-21T04:45:32.923Z,8.32
2023-04-21T04:48:00.100Z,8.18
2023-04-21T04:50:27.075Z,8.29
2023-04-21T04:52:53.761Z,7.78
2023-04-21T04:55:20.610Z,8.41
2023-04-21T04:57:47.235Z,8.30
2023-04-21T05:00:15.072Z,8.31
2023-04-21T05:02:42.963Z,8.36
2023-04-21T05:05:09.904Z,8.43
2023-04-21T05:07:36.944Z,8.59
2023-04-21T05:10:04.632Z,8.38
2023-04-21T05:12:34.592Z,8.14
2023-04-21T05:15:01.295Z,8.29
2023-04-21T05:17:28.674Z,8.09
2023-04-21T05:19:55.386Z,8.55
2023-04-21T05:22:22.155Z,8.34
2023-04-21T05:24:48.871Z,8.52
2023-04-21T05:27:15.641Z,8.73
2023-04-21T05:29:42.283Z,8.57
2023-04-21T05:32:09.269Z,8.81
2023-04-21T05:34:36.255Z,8.86
2023-04-21T05:37:03.002Z,8.79
2023-04-21T05:39:30.517Z,8.83
2023-04-21T05:41:57.215Z,8.86
2023-04-21T05:44:25.569Z,8.87
2023-04-21T05:46:52.342Z,8.90
2023-04-21T05:49:19.923Z,8.92
2023-04-21T05:51:46.727Z,8.57
2023-04-21T05:54:13.384Z,8.91
2023-04-21T05:56:40.073Z,9.04
2023-04-21T05:59:08.558Z,8.77
2023-04-21T06:01:36.267Z,9.16
2023-04-21T06:04:03.147Z,9.35
2023-04-21T06:06:30.512Z,9.46
2023-04-21T06:08:57.282Z,9.63
2023-04-21T06:11:24.943Z,9.92
2023-04-21T06:13:53.680Z,10.06
2023-04-21T06:16:20.679Z,10.18
2023-04-21T06:18:47.360Z,10.20
2023-04-21T06:21:14.008Z,10.39
2023-04-21T06:23:40.826Z,10.21
2023-04-21T06:26:07.791Z,10.41
2023-04-21T06:28:36.251Z,10.34
2023-04-21T06:31:06.221Z,10.33
2023-04-21T06:33:36.106Z,10.77
2023-04-21T06:36:02.910Z,10.82
2023-04-21T06:38:29.654Z,10.70
2023-04-21T06:40:56.313Z,10.47
2023-04-21T06:43:22.914Z,10.74
2023-04-21T06:45:49.590Z,10.77
2023-04-21T06:48:16.693Z,10.91
2023-04-21T06:50:44.652Z,11.17
2023-04-21T06:53:11.690Z,11.21
2023-04-21T06:55:38.321Z,11.77
2023-04-21T06:58:05.120Z,12.07
2023-04-21T07:00:32.879Z,12.43
2023-04-21T07:02:59.636Z,12.96
2023-04-21T07:05:27.395Z,13.77
2023-04-21T07:07:56.869Z,14.30
2023-04-21T07:10:24.715Z,14.72
2023-04-21T07:12:51.251Z,14.76
2023-04-21T07:15:18.101Z,14.74
2023-04-21T07:17:45.761Z,14.89
2023-04-21T07:20:13.196Z,15.03
2023-04-21T07:22:39.735Z,15.08
2023-04-21T07:25:07.169Z,15.14
2023-04-21T07:27:36.352Z,15.19
2023-04-21T07:30:07.352Z,14.98
2023-04-21T07:32:34.953Z,15.21
2023-04-21T07:35:02.719Z,15.07
2023-04-21T07:37:29.441Z,14.91
2023-04-21T07:39:56.084Z,14.68
2023-04-21T07:42:22.938Z,14.72
2023-04-21T07:44:49.754Z,14.74
2023-04-21T07:47:17.929Z,14.72
2023-04-21T07:49:45.672Z,14.46
2023-04-21T07:52:12.290Z,14.09
2023-04-21T07:54:40.002Z,14.02
2023-04-21T07:57:07.502Z,14.68
2023-04-21T07:59:35.129Z,15.08
2023-04-21T08:02:02.116Z,15.07
2023-04-21T08:04:28.916Z,14.72
2023-04-21T08:06:55.951Z,15.22
2023-04-21T08:09:23.722Z,14.97
2023-04-21T08:11:50.570Z,15.41
2023-04-21T08:14:17.319Z,15.88
2023-04-21T08:16:44.324Z,16.12
2023-04-21T08:19:11.370Z,16.41
2023-04-21T08:21:37.948Z,16.39
2023-04-21T08:24:04.829Z,16.78
2023-04-21T08:26:33.834Z,16.61
2023-04-21T08:29:03.475Z,16.50
2023-04-21T08:31:31.202Z,16.80
2023-04-21T08:34:01.979Z,16.78
2023-04-21T08:36:30.572Z,16.90
2023-04-21T08:38:58.238Z,16.97
2023-04-21T08:41:26.635Z,17.34
2023-04-21T09:01:19.137Z,17.33
2023-04-21T09:03:46.261Z,17.93
2023-04-21T09:06:13.474Z,18.03
2023-04-21T09:08:44.746Z,17.78
2023-04-21T09:11:14.402Z,17.80
2023-04-21T09:13:42.924Z,17.56
2023-04-21T09:16:18.410Z,17.86
2023-04-21T09:18:45.300Z,17.82
2023-04-21T09:21:18.003Z,17.78
2023-04-21T09:23:48.618Z,17.85
2023-04-21T09:26:17.659Z,17.72
2023-04-21T09:28:47.623Z,17.62
2023-04-21T09:31:24.560Z,17.76
2023-04-21T09:33:58.665Z,17.88
2023-04-21T09:36:29.944Z,17.37
2023-04-21T09:39:24.479Z,17.57
2023-04-21T09:41:47.182Z,17.40
2023-04-21T09:44:13.815Z,17.77
2023-04-21T09:46:44.572Z,17.72
2023-04-21T09:49:14.559Z,16.78
2023-04-21T09:52:10.489Z,17.58
2023-04-21T09:54:34.552Z,17.27
2023-04-21T09:57:04.557Z,17.30
2023-04-21T09:59:40.905Z,17.27
2023-04-21T10:02:09.541Z,17.22
2023-04-21T10:04:39.203Z,17.34
2023-04-21T10:07:07.529Z,17.49
2023-04-21T10:09:43.124Z,17.68
2023-04-21T10:12:11.330Z,17.59
2023-04-21T10:14:38.166Z,17.83
2023-04-21T10:17:10.144Z,18.08
2023-04-21T10:19:41.634Z,18.56
2023-04-21T10:22:09.745Z,18.63
2023-04-21T10:24:40.192Z,19.57
2023-04-21T10:27:13.026Z,19.55
2023-04-21T10:29:55.521Z,19.29
2023-04-21T10:32:43.229Z,19.30
2023-04-21T10:35:16.892Z,19.08
2023-04-21T10:37:43.846Z,18.85
2023-04-21T10:43:05.919Z,18.87
2023-04-21T10:45:32.752Z,19.06
2023-04-21T10:48:01.427Z,19.40
2023-04-21T10:50:30.380Z,19.37
2023-04-21T10:53:11.150Z,19.34
2023-04-21T10:55:38.938Z,19.43
2023-04-21T10:58:12.038Z,19.82
2023-04-21T11:00:39.286Z,19.97
2023-04-21T11:03:07.568Z,20.03
2023-04-21T11:05:41.835Z,20.17
2023-04-21T11:08:11.380Z,21.47
2023-04-21T11:10:55.429Z,22.83
2023-04-21T11:13:27.612Z,21.99
2023-04-21T11:16:02.535Z,21.68
2023-04-21T11:18:45.398Z,21.24
2023-04-21T11:21:13.729Z,21.88
2023-04-21T11:23:42.103Z,22.05
2023-04-21T11:26:08.759Z,23.00
2023-04-21T11:31:02.151Z,22.04
2023-04-21T11:33:30.532Z,21.99
2023-04-21T11:35:58.999Z,21.33
2023-04-21T11:38:25.680Z,21.97
2023-04-21T11:40:52.330Z,23.00
2023-04-21T11:43:21.187Z,22.62
2023-04-21T11:45:51.514Z,22.04
2023-04-21T11:48:19.613Z,21.93
2023-04-21T11:50:50.358Z,22.01
2023-04-21T11:53:17.192Z,21.82
2023-04-21T11:55:45.777Z,21.57
2023-04-21T11:58:16.134Z,21.47
2023-04-21T12:00:46.353Z,22.89
2023-04-21T12:03:13.722Z,22.55
2023-04-21T12:05:40.609Z,21.23
2023-04-21T12:08:13.603Z,21.47
2023-04-21T12:10:45.487Z,21.92
2023-04-21T12:13:12.337Z,21.56
2023-04-21T12:15:39.008Z,22.04
2023-04-21T12:18:13.403Z,22.37
2023-04-21T12:20:49.149Z,21.20
2023-04-21T12:23:15.746Z,20.94
2023-04-21T12:25:43.325Z,20.73
2023-04-21T12:28:09.920Z,20.28
2023-04-21T12:30:39.359Z,19.94
2023-04-21T12:33:08.454Z,19.75
2023-04-21T12:35:35.618Z,19.44
2023-04-21T12:38:02.251Z,19.60
2023-04-21T12:40:28.934Z,19.65
2023-04-21T12:42:55.514Z,20.58
2023-04-21T12:45:23.190Z,22.91
2023-04-21T12:47:50.214Z,23.08
2023-04-21T12:50:16.931Z,21.97
2023-04-21T12:52:43.535Z,22.69
2023-04-21T12:55:10.525Z,23.16
2023-04-21T12:57:37.166Z,23.73
2023-04-21T13:00:04.392Z,23.34
2023-04-21T13:02:37.083Z,22.68
2023-04-21T13:05:04.999Z,22.48
2023-04-21T13:07:33.293Z,21.82
2023-04-21T13:10:00.236Z,20.83
2023-04-21T13:12:26.845Z,21.04
2023-04-21T13:14:53.456Z,21.39
2023-04-21T13:17:20.354Z,22.59
2023-04-21T13:19:47.112Z,23.21
2023-04-21T13:22:13.927Z,24.36
2023-04-21T13:24:40.679Z,24.54
2023-04-21T13:27:07.556Z,24.52
2023-04-21T13:29:34.907Z,22.95
2023-04-21T13:32:06.601Z,22.77
2023-04-21T13:34:34.147Z,22.52
2023-04-21T13:37:01.623Z,21.76
2023-04-21T13:39:28.331Z,21.82
2023-04-21T13:41:54.844Z,21.65
2023-04-21T13:44:21.640Z,21.99
2023-04-21T13:46:48.418Z,23.49
2023-04-21T13:49:15.235Z,24.14
2023-04-21T13:51:42.119Z,23.56
2023-04-21T13:54:08.640Z,22.67
2023-04-21T13:56:36.673Z,21.80
2023-04-21T13:59:04.573Z,21.24
2023-04-21T14:01:31.174Z,21.02
2023-04-21T14:03:58.306Z,20.97
2023-04-21T14:06:25.407Z,20.99
2023-04-21T14:08:53.225Z,22.94
2023-04-21T14:11:20.240Z,24.01
2023-04-21T14:14:00.832Z,23.19
2023-04-21T14:16:33.939Z,22.25
2023-04-21T14:19:00.668Z,21.96
2023-04-21T14:21:27.386Z,21.72
2023-04-21T14:23:53.957Z,21.76
2023-04-21T14:26:20.936Z,21.71
2023-04-21T14:28:47.580Z,21.26
2023-04-21T14:31:14.136Z,20.85
2023-04-21T14:33:41.316Z,21.07
2023-04-21T14:36:10.335Z,22.26
2023-04-21T14:38:37.994Z,23.43
2023-04-21T14:41:04.857Z,24.69
2023-04-21T14:43:32.525Z,25.82
2023-04-21T14:45:59.408Z,26.45
2023-04-21T14:48:26.504Z,26.64
2023-04-21T14:50:53.155Z,25.54
2023-04-21T14:53:19.824Z,26.54
2023-04-21T14:55:46.714Z,26.43
2023-04-21T14:58:13.279Z,25.25
2023-04-21T15:00:39.921Z,24.10
2023-04-21T15:03:06.774Z,23.11
2023-04-21T15:05:34.805Z,22.88
2023-04-21T15:08:02.736Z,22.61
2023-04-21T15:10:32.193Z,22.83
2023-04-21T15:12:59.230Z,23.49
2023-04-21T15:15:25.894Z,24.18
2023-04-21T15:17:52.475Z,25.26
2023-04-21T15:20:22.638Z,26.09
2023-04-21T15:22:57.260Z,25.50
2023-04-21T15:25:24.000Z,24.66
2023-04-21T15:27:50.602Z,23.78
2023-04-21T15:30:17.389Z,22.62
2023-04-21T15:32:44.155Z,22.18
2023-04-21T15:35:10.900Z,22.02
2023-04-21T15:37:37.551Z,21.33
2023-04-21T15:40:04.887Z,21.21
2023-04-21T15:42:31.558Z,22.30
2023-04-21T15:44:59.372Z,23.36
2023-04-21T15:47:26.135Z,24.55
2023-04-21T15:49:52.789Z,25.07
2023-04-21T15:52:19.564Z,25.02
2023-04-21T15:54:46.554Z,25.10
2023-04-21T15:57:13.157Z,25.02
2023-04-21T15:59:40.000Z,24.52
2023-04-21T16:02:06.976Z,25.23
2023-04-21T16:04:33.958Z,25.84
2023-04-21T16:07:00.869Z,26.14
2023-04-21T16:09:27.585Z,26.63
2023-04-21T16:11:54.478Z,26.31
2023-04-21T16:14:21.105Z,26.51
2023-04-21T16:16:47.886Z,26.91
2023-04-21T16:19:14.700Z,25.92
2023-04-21T16:21:42.525Z,25.63
2023-04-21T16:24:09.678Z,24.78
2023-04-21T16:26:36.878Z,24.24
2023-04-21T16:29:03.626Z,23.88
2023-04-21T16:31:31.372Z,22.84
2023-04-21T16:34:00.178Z,22.03
2023-04-21T16:36:32.289Z,20.47
2023-04-21T16:38:59.320Z,21.00
2023-04-21T16:41:26.120Z,21.21
2023-04-21T16:43:54.997Z,20.75
2023-04-21T16:46:22.146Z,20.38
2023-04-21T16:48:48.947Z,20.17
2023-04-21T16:51:17.421Z,19.98
2023-04-21T16:53:44.128Z,19.88
2023-04-21T16:56:10.862Z,19.64
2023-04-21T16:58:37.764Z,19.33
2023-04-21T17:01:04.959Z,19.21
2023-04-21T17:03:31.948Z,19.21
2023-04-21T17:05:58.788Z,18.72
2023-04-21T17:08:25.578Z,18.96
2023-04-21T17:10:52.190Z,18.61
2023-04-21T17:13:18.815Z,18.58
2023-04-21T17:15:45.375Z,18.33
2023-04-21T17:18:12.186Z,18.33
2023-04-21T17:21:06.200Z,18.21
2023-04-21T17:23:33.646Z,17.72
2023-04-21T17:26:01.106Z,16.27
2023-04-21T17:28:28.768Z,14.86
2023-04-21T17:31:03.565Z,13.47
2023-04-21T17:33:40.873Z,13.20
2023-04-21T17:36:08.079Z,12.78
2023-04-21T17:38:35.762Z,12.56
2023-04-21T17:41:02.962Z,12.36
2023-04-21T17:43:29.614Z,12.30
2023-04-21T17:45:56.241Z,12.03
2023-04-21T17:48:23.900Z,12.47
2023-04-21T17:50:51.069Z,12.11
2023-04-21T17:53:18.023Z,12.31
2023-04-21T17:55:44.783Z,12.23
2023-04-21T17:58:12.703Z,12.16
2023-04-21T18:00:39.540Z,12.14
2023-04-21T18:03:06.635Z,12.00
2023-04-21T18:05:33.853Z,11.83
2023-04-21T18:08:00.810Z,11.86
2023-04-21T18:10:29.738Z,11.56
2023-04-21T18:12:57.236Z,11.52
2023-04-21T18:15:24.251Z,11.49
2023-04-21T18:17:52.987Z,11.53
2023-04-21T18:20:19.923Z,11.41
2023-04-21T18:22:46.738Z,11.29
2023-04-21T18:25:13.548Z,10.81
2023-04-21T18:27:41.624Z,10.38
2023-04-21T18:30:09.500Z,10.87
2023-04-21T18:32:37.022Z,10.66
2023-04-21T18:35:05.483Z,10.90
2023-04-21T18:37:32.223Z,10.82
2023-04-21T18:39:59.078Z,10.11
2023-04-21T18:42:26.466Z,10.70
2023-04-21T18:44:57.062Z,10.23
2023-04-21T18:47:25.013Z,10.62
2023-04-21T18:49:52.584Z,10.16
2023-04-21T18:52:19.307Z,10.27
2023-04-21T18:54:47.093Z,10.42
2023-04-21T18:57:13.706Z,10.35
2023-04-21T18:59:40.678Z,10.23
2023-04-21T19:02:12.678Z,10.55
2023-04-21T19:04:39.892Z,10.28
2023-04-21T19:07:09.904Z,10.25
2023-04-21T19:09:38.450Z,10.36
2023-04-21T19:12:05.324Z,10.31
2023-04-21T19:14:42.482Z,10.44
2023-04-21T19:17:13.210Z,10.23
2023-04-21T19:19:40.466Z,10.16
2023-04-21T19:22:07.159Z,10.30
2023-04-21T19:24:34.245Z,9.87
2023-04-21T19:27:05.441Z,10.29
2023-04-21T19:29:32.681Z,10.14
2023-04-21T19:31:59.466Z,10.23
2023-04-21T19:34:26.805Z,10.19
2023-04-21T19:36:53.702Z,10.24
2023-04-21T19:39:20.473Z,10.22
2023-04-21T19:41:47.191Z,10.18
2023-04-21T19:44:13.768Z,9.93
2023-04-21T19:46:42.694Z,9.95
2023-04-21T19:49:12.992Z,10.02
2023-04-21T19:51:41.247Z,10.18
2023-04-21T19:54:11.760Z,10.21
2023-04-21T19:56:39.465Z,10.23
2023-04-21T19:59:07.587Z,10.24
2023-04-21T20:01:35.465Z,10.10
2023-04-21T20:04:03.245Z,10.44
2023-04-21T20:06:30.491Z,10.02
2023-04-21T20:08:57.055Z,10.49
2023-04-21T20:11:23.807Z,10.30
2023-04-21T20:13:50.606Z,10.57
2023-04-21T20:16:20.103Z,10.57
2023-04-21T20:18:47.067Z,10.94
2023-04-21T20:21:14.832Z,10.93
2023-04-21T20:23:41.402Z,11.06
2023-04-21T20:26:08.062Z,10.75
2023-04-21T20:28:36.436Z,11.09
2023-04-21T20:31:04.488Z,10.52
2023-04-21T20:33:31.233Z,11.19
2023-04-21T20:35:57.831Z,11.09
2023-04-21T20:38:24.591Z,11.06
2023-04-21T20:40:52.312Z,10.88
2023-04-21T20:43:18.926Z,10.92
2023-04-21T20:45:47.258Z,10.57
2023-04-21T20:48:13.998Z,10.86
2023-04-21T20:50:41.024Z,10.85
2023-04-21T20:53:08.814Z,10.74
2023-04-21T20:55:38.125Z,10.91
2023-04-21T20:58:05.005Z,10.81
2023-04-21T21:00:34.178Z,10.69
2023-04-21T21:03:02.144Z,10.63
2023-04-21T21:05:33.160Z,10.44
2023-04-21T21:07:59.916Z,10.29
2023-04-21T21:10:26.813Z,10.37
2023-04-21T21:12:53.459Z,10.27
2023-04-21T21:15:20.096Z,9.91
2023-04-21T21:17:46.828Z,10.36
2023-04-21T21:20:13.609Z,10.35
2023-04-21T21:22:40.295Z,10.37
2023-04-21T21:25:07.244Z,10.25
2023-04-21T21:27:34.105Z,10.33
2023-04-21T21:30:00.690Z,10.34
2023-04-21T21:32:27.297Z,10.24
2023-04-21T21:34:53.949Z,10.03
2023-04-21T21:37:21.237Z,10.38
2023-04-21T21:39:48.023Z,10.19
2023-04-21T21:42:14.563Z,10.25
2023-04-21T21:44:41.204Z,10.02
2023-04-21T21:47:07.898Z,10.04
2023-04-21T21:49:38.323Z,10.05
2023-04-21T21:56:16.544Z,9.74
2023-04-21T21:58:44.200Z,9.44
2023-04-21T22:01:11.555Z,9.56
2023-04-21T22:03:38.254Z,9.44
2023-04-21T22:06:09.988Z,9.34
2023-04-21T22:08:42.335Z,9.27
2023-04-21T22:11:09.858Z,9.00
2023-04-21T22:13:37.570Z,8.81
2023-04-21T22:16:04.337Z,8.80
2023-04-21T22:18:31.087Z,8.77
2023-04-21T22:20:59.010Z,8.71
2023-04-21T22:23:26.092Z,8.47
2023-04-21T22:25:52.698Z,8.54
2023-04-21T22:28:20.452Z,8.39
2023-04-21T22:30:48.187Z,7.90
2023-04-21T22:33:14.905Z,8.13
2023-04-21T22:35:42.583Z,7.75
2023-04-21T22:38:09.197Z,8.31
2023-04-21T22:40:37.818Z,8.27
2023-04-21T22:43:05.268Z,8.23
2023-04-21T22:45:35.504Z,8.40
2023-04-21T22:48:02.356Z,8.53
2023-04-21T22:50:36.183Z,8.52
2023-04-21T22:53:05.871Z,8.51
2023-04-21T22:55:32.492Z,8.54
2023-04-21T22:57:59.845Z,8.50
2023-04-21T23:00:26.832Z,8.20
2023-04-21T23:02:53.601Z,8.39
2023-04-21T23:05:20.521Z,8.25
2023-04-21T23:07:47.307Z,8.27
2023-04-21T23:10:13.948Z,8.19
2023-04-21T23:12:40.688Z,8.24
2023-04-21T23:15:07.582Z,8.06
2023-04-21T23:17:34.385Z,8.07
2023-04-21T23:20:05.112Z,8.15
2023-04-21T23:22:32.233Z,7.95
2023-04-21T23:24:58.907Z,7.55
2023-04-21T23:27:25.548Z,7.84
2023-04-21T23:29:55.415Z,7.95
2023-04-21T23:32:22.258Z,7.72
2023-04-21T23:34:48.896Z,7.25
2023-04-21T23:37:15.492Z,7.61
2023-04-21T23:39:42.109Z,7.51
2023-04-21T23:42:09.375Z,7.58
2023-04-21T23:44:37.327Z,7.64
2023-04-21T23:47:04.188Z,7.61
2023-04-21T23:49:30.818Z,7.56
2023-04-21T23:51:57.433Z,7.39
2023-04-21T23:54:24.695Z,7.41
2023-04-21T23:56:52.204Z,7.30
2023-04-21T23:59:18.818Z,7.13
